Time;durP1;ratioP1;P1;durP2;ratioP2;P2;SDS_P1;SDS_P2;PMS_P1;PMS_P2;Temp;Humidity;BMP_temperature;BMP_pressure;BME280_temperature;BME280_humidity;BME280_pressure;Samples;Min_cycle;Max_cycle;Signal;HPM_P1;HPM_P2
2023/08/18 00:02:15;;;;;;;3.25;3.05;;;;;;;22.80;nan;100460.41;4987077;28;20149;-78
2023/08/18 00:04:41;;;;;;;3.20;3.00;;;;;;;22.81;nan;100459.47;4978460;28;20110;-78
2023/08/18 00:07:07;;;;;;;3.40;3.10;;;;;;;22.81;nan;100454.16;4985454;28;20269;-78
2023/08/18 00:09:32;;;;;;;3.03;2.83;;;;;;;22.80;nan;100444.53;4982614;28;20026;-78
2023/08/18 00:11:57;;;;;;;2.97;2.78;;;;;;;22.80;nan;100441.88;4984637;28;20026;-78
2023/08/18 00:14:23;;;;;;;3.28;3.00;;;;;;;22.80;nan;100436.59;4987665;28;20913;-78
2023/08/18 00:16:48;;;;;;;2.80;2.60;;;;;;;22.80;nan;100436.59;4986781;28;20442;-78
2023/08/18 00:19:13;;;;;;;3.17;2.97;;;;;;;22.81;nan;100435.63;4982894;28;20027;-78
2023/08/18 00:21:40;;;;;;;3.28;3.08;;;;;;;22.80;nan;100433.94;4983294;28;20030;-77
2023/08/18 00:24:05;;;;;;;3.10;2.90;;;;;;;22.80;nan;100433.94;4973526;28;20070;-78
2023/08/18 00:26:31;;;;;;;3.00;2.80;;;;;;;22.80;nan;100433.94;4981374;28;20785;-77
2023/08/18 00:28:56;;;;;;;2.92;2.72;;;;;;;22.81;nan;100433.00;4980919;28;20026;-77
2023/08/18 00:31:21;;;;;;;3.10;2.90;;;;;;;22.81;nan;100427.69;4983096;28;20121;-77
2023/08/18 00:33:47;;;;;;;3.33;3.03;;;;;;;22.81;nan;100432.16;4984481;28;20042;-77
2023/08/18 00:36:12;;;;;;;2.80;2.60;;;;;;;22.81;nan;100434.81;4978336;28;20124;-78
2023/08/18 00:38:38;;;;;;;2.80;2.60;;;;;;;22.80;nan;100433.94;4982316;28;20030;-77
2023/08/18 00:41:03;;;;;;;2.90;2.60;;;;;;;22.80;nan;100428.63;4980957;28;20029;-78
2023/08/18 00:43:28;;;;;;;3.08;2.83;;;;;;;22.80;nan;100430.44;4982991;28;20477;-78
2023/08/18 00:45:54;;;;;;;3.08;2.88;;;;;;;22.80;nan;100428.63;4985126;28;20030;-77
2023/08/18 00:48:20;;;;;;;2.67;2.55;;;;;;;22.79;nan;100423.47;4982966;28;20032;-77
2023/08/18 00:50:45;;;;;;;3.30;3.10;;;;;;;22.80;nan;100431.28;4982553;28;20474;-77
2023/08/18 00:53:11;;;;;;;3.00;2.80;;;;;;;22.81;nan;100442.75;4984570;28;20033;-79
2023/08/18 00:55:36;;;;;;;2.95;2.75;;;;;;;22.79;nan;100434.91;4984346;28;20033;-78
2023/08/18 00:58:02;;;;;;;3.28;3.03;;;;;;;22.80;nan;100436.59;4983335;28;20025;-77
2023/08/18 01:00:28;;;;;;;2.80;2.60;;;;;;;22.79;nan;100434.06;4982858;28;20138;-77
2023/08/18 01:02:53;;;;;;;3.00;2.80;;;;;;;22.79;nan;100424.31;4980951;28;20088;-78
2023/08/18 01:05:19;;;;;;;2.70;2.50;;;;;;;22.80;nan;100436.59;4975897;28;20073;-78
2023/08/18 01:07:45;;;;;;;2.60;2.47;;;;;;;22.80;nan;100436.59;4978459;28;20137;-78
2023/08/18 01:10:11;;;;;;;2.85;2.65;;;;;;;22.80;nan;100438.41;4980513;28;20065;-78
2023/08/18 01:13:26;;;;;;;3.08;2.88;;;;;;;22.79;nan;100437.56;4979654;28;20149;-77
2023/08/18 01:15:52;;;;;;;2.72;2.53;;;;;;;22.79;nan;100434.06;4987929;28;20113;-77
2023/08/18 01:18:18;;;;;;;2.67;2.53;;;;;;;22.79;nan;100442.00;4979732;28;20080;-77
2023/08/18 01:20:44;;;;;;;2.70;2.50;;;;;;;22.80;nan;100436.59;4982205;28;20414;-77
2023/08/18 01:23:09;;;;;;;3.00;2.80;;;;;;;22.79;nan;100432.25;4989269;28;20041;-77
2023/08/18 01:25:40;;;;;;;3.17;2.97;;;;;;;22.79;nan;100424.31;4980615;28;20038;-77
2023/08/18 01:28:06;;;;;;;3.17;2.97;;;;;;;22.78;nan;100422.66;4981542;28;20064;-77
2023/08/18 01:30:58;;;;;;;3.05;2.85;;;;;;;22.78;nan;100433.25;4981608;28;20532;-77
2023/08/18 01:33:31;;;;;;;2.92;2.72;;;;;;;22.79;nan;100434.06;4977931;28;20069;-77
2023/08/18 01:35:59;;;;;;;3.10;2.90;;;;;;;22.79;nan;100429.63;4984788;28;20049;-77
2023/08/18 01:38:25;;;;;;;2.90;2.70;;;;;;;22.80;nan;100431.28;4982139;28;20638;-78
2023/08/18 01:40:50;;;;;;;3.05;2.85;;;;;;;22.79;nan;100424.31;4982310;28;20037;-77
2023/08/18 01:43:16;;;;;;;3.58;3.28;;;;;;;22.78;nan;100425.28;4977884;28;20445;-77
2023/08/18 01:45:41;;;;;;;2.80;2.60;;;;;;;22.78;nan;100422.66;4989092;28;20054;-78
2023/08/18 01:48:06;;;;;;;3.10;2.90;;;;;;;22.78;nan;100412.06;4981810;28;20356;-77
2023/08/18 01:50:31;;;;;;;3.22;3.03;;;;;;;22.79;nan;100420.84;4981747;28;20039;-77
2023/08/18 01:52:57;;;;;;;2.90;2.70;;;;;;;22.78;nan;100422.66;4981954;28;20045;-78
2023/08/18 01:55:22;;;;;;;2.92;2.72;;;;;;;22.78;nan;100413.88;4986283;28;20034;-78
2023/08/18 01:57:47;;;;;;;2.95;2.75;;;;;;;22.77;nan;100410.38;4966499;28;20037;-78
2023/08/18 02:00:13;;;;;;;3.03;2.83;;;;;;;22.78;nan;100408.56;4983147;28;20693;-78
2023/08/18 02:02:38;;;;;;;2.70;2.50;;;;;;;22.77;nan;100405.09;4985364;28;20465;-78
2023/08/18 02:05:19;;;;;;;3.00;2.80;;;;;;;22.77;nan;100405.09;4989066;28;20033;-78
2023/08/18 02:07:44;;;;;;;2.85;2.65;;;;;;;22.77;nan;100404.25;4981828;28;20118;-78
2023/08/18 02:10:09;;;;;;;2.70;2.53;;;;;;;22.79;nan;100403.16;4982662;28;20033;-77
2023/08/18 02:12:35;;;;;;;2.80;2.60;;;;;;;22.78;nan;100400.63;4982002;28;20161;-77
2023/08/18 02:15:00;;;;;;;2.70;2.50;;;;;;;22.78;nan;100412.06;4977235;28;20378;-77
2023/08/18 02:17:29;;;;;;;2.88;2.67;;;;;;;22.77;nan;100407.75;4982947;28;20122;-77
2023/08/18 02:19:55;;;;;;;3.03;2.83;;;;;;;22.78;nan;100406.75;4985117;28;20152;-77
2023/08/18 02:22:20;;;;;;;2.78;2.58;;;;;;;22.77;nan;100401.63;4990040;28;20140;-77
2023/08/18 02:24:46;;;;;;;2.63;2.42;;;;;;;22.77;nan;100405.09;4989569;28;20520;-78
2023/08/18 02:27:11;;;;;;;3.00;2.80;;;;;;;22.77;nan;100405.09;4987182;28;20053;-78
2023/08/18 02:29:36;;;;;;;2.97;2.78;;;;;;;22.78;nan;100392.69;4987534;28;20026;-78
2023/08/18 02:32:03;;;;;;;2.90;2.70;;;;;;;22.76;nan;100398.13;4989169;28;20038;-78
2023/08/18 02:34:28;;;;;;;2.90;2.70;;;;;;;22.76;nan;100398.13;4989028;28;20042;-78
2023/08/18 02:36:54;;;;;;;3.10;2.90;;;;;;;22.77;nan;100396.31;4988455;28;20054;-78
2023/08/18 02:39:19;;;;;;;3.00;2.80;;;;;;;22.77;nan;100399.81;4984873;28;20121;-78
2023/08/18 02:41:46;;;;;;;2.90;2.70;;;;;;;22.77;nan;100398.97;4985770;28;20031;-78
2023/08/18 02:44:11;;;;;;;2.67;2.47;;;;;;;22.77;nan;100397.16;4990300;28;20034;-78
2023/08/18 02:46:37;;;;;;;3.00;2.80;;;;;;;22.77;nan;100399.81;4987684;28;20049;-78
2023/08/18 02:49:02;;;;;;;2.75;2.55;;;;;;;22.77;nan;100399.81;4985739;28;20104;-78
2023/08/18 02:51:27;;;;;;;2.90;2.70;;;;;;;22.77;nan;100402.44;4982935;28;20507;-78
2023/08/18 02:53:53;;;;;;;3.00;2.80;;;;;;;22.77;nan;100391.03;4988047;28;20082;-78
2023/08/18 02:56:18;;;;;;;2.90;2.70;;;;;;;22.76;nan;100395.47;4981543;28;20044;-78
2023/08/18 02:58:43;;;;;;;3.25;3.03;;;;;;;22.77;nan;100389.22;4985031;28;20038;-78
2023/08/18 03:01:09;;;;;;;2.70;2.50;;;;;;;22.75;nan;100383.22;4967653;28;20121;-78
2023/08/18 03:03:35;;;;;;;2.95;2.75;;;;;;;22.75;nan;100386.72;4993979;28;20034;-79
2023/08/18 03:06:07;;;;;;;2.85;2.65;;;;;;;22.76;nan;100387.53;4992585;28;20394;-78
2023/08/18 03:08:34;;;;;;;2.80;2.60;;;;;;;22.75;nan;100384.06;4985605;28;20549;-78
2023/08/18 03:11:00;;;;;;;2.83;2.63;;;;;;;22.74;nan;100379.72;4984795;28;20117;-78
2023/08/18 03:13:26;;;;;;;2.90;2.70;;;;;;;22.75;nan;100376.13;4980354;28;20030;-78
2023/08/18 03:15:52;;;;;;;2.72;2.53;;;;;;;22.75;nan;100377.94;4992416;28;20055;-78
2023/08/18 03:18:17;;;;;;;2.85;2.65;;;;;;;22.76;nan;100387.53;4985580;28;20842;-78
2023/08/18 03:20:58;;;;;;;2.55;2.40;;;;;;;22.76;nan;100382.25;4986172;28;20034;-78
2023/08/18 03:23:23;;;;;;;2.75;2.60;;;;;;;22.76;nan;100382.25;4981975;28;20811;-78
2023/08/18 03:25:49;;;;;;;2.80;2.60;;;;;;;22.75;nan;100383.22;4984152;28;20073;-78
2023/08/18 03:28:14;;;;;;;2.50;2.40;;;;;;;22.76;nan;100390.19;4985636;28;20029;-78
2023/08/18 03:30:40;;;;;;;2.40;2.20;;;;;;;22.75;nan;100392.00;4985418;28;20033;-78
2023/08/18 03:33:06;;;;;;;2.75;2.58;;;;;;;22.75;nan;100385.88;4988149;28;20034;-78
2023/08/18 03:35:32;;;;;;;2.75;2.50;;;;;;;22.74;nan;100385.00;4986495;28;20152;-78
2023/08/18 03:38:01;;;;;;;3.00;2.80;;;;;;;22.75;nan;100384.06;4983956;28;20103;-78
2023/08/18 03:40:26;;;;;;;2.67;2.47;;;;;;;22.75;nan;100392.00;4983522;28;20044;-78
2023/08/18 03:42:51;;;;;;;2.55;2.38;;;;;;;22.74;nan;100406.19;4987867;28;20057;-78
2023/08/18 03:45:17;;;;;;;2.60;2.42;;;;;;;22.75;nan;100401.75;4987686;28;20865;-78
2023/08/18 03:47:42;;;;;;;2.90;2.70;;;;;;;22.74;nan;100403.53;4985419;28;20149;-78
2023/08/18 03:50:08;;;;;;;2.47;2.38;;;;;;;22.75;nan;100404.41;4983746;28;20040;-78
2023/08/18 03:52:33;;;;;;;2.30;2.20;;;;;;;22.74;nan;100405.34;4989377;28;20072;-78
2023/08/18 03:54:59;;;;;;;2.50;2.40;;;;;;;22.74;nan;100400.88;4998585;28;20040;-78
2023/08/18 03:57:24;;;;;;;2.90;2.70;;;;;;;22.74;nan;100398.22;4985321;28;20108;-78
2023/08/18 03:59:49;;;;;;;2.45;2.35;;;;;;;22.75;nan;100404.41;4985822;28;20092;-78
2023/08/18 04:02:15;;;;;;;2.63;2.47;;;;;;;22.75;nan;100409.69;4982666;28;20034;-79
2023/08/18 04:04:40;;;;;;;2.47;2.35;;;;;;;22.74;nan;100406.19;4978590;28;20038;-78
2023/08/18 04:07:05;;;;;;;2.83;2.63;;;;;;;22.74;nan;100403.53;4984043;28;20241;-78
2023/08/18 04:09:30;;;;;;;2.85;2.65;;;;;;;22.74;nan;100402.69;4983808;28;20125;-78
2023/08/18 04:11:56;;;;;;;2.53;2.42;;;;;;;22.75;nan;100409.69;4983074;28;20049;-78
2023/08/18 04:14:21;;;;;;;2.80;2.60;;;;;;;22.74;nan;100410.63;4983582;28;20030;-78
2023/08/18 04:16:46;;;;;;;2.90;2.70;;;;;;;22.74;nan;100410.63;4982843;28;20172;-78
2023/08/18 04:19:12;;;;;;;2.50;2.40;;;;;;;22.74;nan;100405.34;4982929;28;20037;-78
2023/08/18 04:21:37;;;;;;;2.55;2.40;;;;;;;22.74;nan;100410.63;4968071;28;20779;-78
2023/08/18 04:24:03;;;;;;;2.55;2.45;;;;;;;22.74;nan;100411.47;4990778;28;20092;-78
2023/08/18 04:26:29;;;;;;;2.80;2.60;;;;;;;22.73;nan;100409.78;4987441;28;20049;-79
2023/08/18 04:28:54;;;;;;;2.65;2.45;;;;;;;22.74;nan;100410.63;4985658;28;20559;-78
2023/08/18 04:31:19;;;;;;;3.05;2.85;;;;;;;22.73;nan;100414.25;4983974;28;20049;-78
2023/08/18 04:33:45;;;;;;;2.78;2.58;;;;;;;22.74;nan;100418.56;4986619;28;20030;-78
2023/08/18 04:36:10;;;;;;;2.70;2.50;;;;;;;22.73;nan;100425.69;4991733;28;20461;-78
2023/08/18 04:38:36;;;;;;;2.60;2.50;;;;;;;22.74;nan;100418.56;4984620;28;20038;-78
2023/08/18 04:41:02;;;;;;;2.65;2.45;;;;;;;22.73;nan;100415.09;4984123;28;20508;-78
2023/08/18 04:43:28;;;;;;;2.35;2.25;;;;;;;22.73;nan;100424.84;4978414;28;20034;-78
2023/08/18 04:45:54;;;;;;;2.65;2.55;;;;;;;22.73;nan;100425.69;4989176;28;20137;-78
2023/08/18 04:48:20;;;;;;;2.40;2.28;;;;;;;22.74;nan;100429.16;4984339;28;20036;-78
2023/08/18 04:50:45;;;;;;;2.75;2.55;;;;;;;22.73;nan;100424.84;4983932;28;20164;-78
2023/08/18 04:53:10;;;;;;;2.90;2.70;;;;;;;22.72;nan;100424.00;4985893;28;20391;-78
2023/08/18 04:55:36;;;;;;;2.70;2.50;;;;;;;22.72;nan;100424.00;4991768;28;20707;-78
2023/08/18 04:58:02;;;;;;;2.47;2.28;;;;;;;22.73;nan;100424.84;4983936;28;20034;-78
2023/08/18 05:00:28;;;;;;;2.67;2.47;;;;;;;22.72;nan;100424.00;4983963;28;20052;-78
2023/08/18 05:02:53;;;;;;;2.50;2.30;;;;;;;22.72;nan;100425.81;4967107;28;20034;-78
2023/08/18 05:05:18;;;;;;;2.70;2.50;;;;;;;22.73;nan;100430.13;4993076;28;20513;-78
2023/08/18 05:07:45;;;;;;;2.63;2.42;;;;;;;22.73;nan;100430.13;4984121;28;20034;-78
2023/08/18 05:10:10;;;;;;;2.35;2.25;;;;;;;22.72;nan;100424.00;4983666;28;20030;-78
2023/08/18 05:12:35;;;;;;;2.53;2.42;;;;;;;22.72;nan;100426.66;4984659;28;20045;-78
2023/08/18 05:15:01;;;;;;;2.60;2.40;;;;;;;22.72;nan;100429.28;4980808;28;20029;-77
2023/08/18 05:17:27;;;;;;;2.65;2.45;;;;;;;22.72;nan;100424.00;4982427;28;20131;-78
2023/08/18 05:19:52;;;;;;;2.40;2.30;;;;;;;22.72;nan;100425.81;4983028;28;20030;-78
2023/08/18 05:22:21;;;;;;;2.58;2.40;;;;;;;22.72;nan;100428.47;4981205;28;20144;-78
2023/08/18 05:24:47;;;;;;;2.50;2.38;;;;;;;22.71;nan;100419.69;4962168;28;20042;-78
2023/08/18 05:27:12;;;;;;;2.92;2.72;;;;;;;22.72;nan;100418.72;4983348;28;20044;-78
2023/08/18 05:29:38;;;;;;;2.20;2.10;;;;;;;22.73;nan;100432.78;4983397;28;20041;-78
2023/08/18 05:32:03;;;;;;;2.30;2.20;;;;;;;22.72;nan;100425.81;4981860;28;20028;-78
2023/08/18 05:34:28;;;;;;;2.50;2.40;;;;;;;22.72;nan;100431.94;4987113;28;20420;-78
2023/08/18 05:36:54;;;;;;;2.53;2.42;;;;;;;22.72;nan;100441.69;4982508;28;20033;-78
2023/08/18 05:39:19;;;;;;;2.40;2.30;;;;;;;22.72;nan;100433.75;4983363;28;20053;-79
2023/08/18 05:41:44;;;;;;;2.55;2.35;;;;;;;22.72;nan;100444.34;4984070;28;20034;-78
2023/08/18 05:44:10;;;;;;;2.70;2.50;;;;;;;22.72;nan;100439.03;4989402;28;20524;-78
2023/08/18 05:46:35;;;;;;;2.45;2.25;;;;;;;22.72;nan;100433.75;4981243;28;20425;-78
2023/08/18 05:49:01;;;;;;;2.47;2.28;;;;;;;22.71;nan;100438.22;4981955;28;20065;-78
2023/08/18 05:51:26;;;;;;;2.47;2.38;;;;;;;22.71;nan;100443.50;4983868;28;20030;-78
2023/08/18 05:53:51;;;;;;;2.55;2.35;;;;;;;22.72;nan;100439.88;4995580;28;20032;-77
2023/08/18 05:56:17;;;;;;;2.70;2.50;;;;;;;22.72;nan;100439.03;4988887;28;20155;-78
2023/08/18 05:58:43;;;;;;;2.42;2.22;;;;;;;22.73;nan;100443.38;4983275;28;20109;-78
2023/08/18 06:01:08;;;;;;;2.47;2.30;;;;;;;22.72;nan;100447.00;4983671;28;20041;-78
2023/08/18 06:03:34;;;;;;;2.10;2.00;;;;;;;22.71;nan;100437.38;4993916;28;20430;-77
2023/08/18 06:06:02;;;;;;;2.47;2.28;;;;;;;22.71;nan;100445.31;4981715;28;21675;-78
2023/08/18 06:08:28;;;;;;;2.80;2.60;;;;;;;22.71;nan;100454.09;4980942;28;20030;-78
2023/08/18 06:10:54;;;;;;;2.30;2.20;;;;;;;22.71;nan;100462.03;4964959;28;20288;-78
2023/08/18 06:13:20;;;;;;;2.33;2.22;;;;;;;22.71;nan;100462.03;4975983;28;20109;-78
2023/08/18 06:15:45;;;;;;;2.38;2.28;;;;;;;22.71;nan;100467.31;4984610;28;20022;-78
2023/08/18 06:18:10;;;;;;;2.78;2.58;;;;;;;22.72;nan;100463.69;4980949;28;20034;-78
2023/08/18 06:20:36;;;;;;;2.22;2.13;;;;;;;22.71;nan;100464.69;4982911;28;20694;-78
2023/08/18 06:23:01;;;;;;;2.65;2.45;;;;;;;22.72;nan;100465.50;4984432;28;20707;-78
2023/08/18 06:25:26;;;;;;;2.85;2.65;;;;;;;22.71;nan;100475.25;4984835;28;20081;-78
2023/08/18 06:27:52;;;;;;;2.55;2.45;;;;;;;22.72;nan;100479.59;4980504;28;20057;-78
2023/08/18 06:30:17;;;;;;;2.40;2.20;;;;;;;22.72;nan;100476.09;4979847;28;20026;-78
2023/08/18 06:32:44;;;;;;;2.65;2.50;;;;;;;22.73;nan;100477.78;4982689;28;20029;-78
2023/08/18 06:35:09;;;;;;;2.45;2.25;;;;;;;22.73;nan;100477.78;4993809;28;20038;-78
2023/08/18 06:37:35;;;;;;;2.33;2.22;;;;;;;22.73;nan;100477.78;4980868;28;20081;-78
2023/08/18 06:40:00;;;;;;;2.42;2.33;;;;;;;22.73;nan;100483.06;4980265;28;20445;-77
2023/08/18 06:42:25;;;;;;;2.88;2.67;;;;;;;22.73;nan;100488.34;4980164;28;20022;-78
2023/08/18 06:44:51;;;;;;;2.35;2.25;;;;;;;22.72;nan;100482.22;4975501;28;20088;-78
2023/08/18 06:47:16;;;;;;;2.20;2.10;;;;;;;22.74;nan;100484.75;4979719;28;20030;-78
2023/08/18 06:49:41;;;;;;;2.97;2.75;;;;;;;22.73;nan;100480.41;4980881;28;20049;-78
2023/08/18 06:52:07;;;;;;;2.70;2.50;;;;;;;22.73;nan;100483.91;4980977;28;20804;-78
2023/08/18 06:54:33;;;;;;;2.55;2.45;;;;;;;22.74;nan;100484.75;4975396;28;20446;-79
2023/08/18 06:56:58;;;;;;;2.65;2.45;;;;;;;22.73;nan;100483.06;4964107;28;20037;-78
2023/08/18 06:59:24;;;;;;;2.20;2.10;;;;;;;22.74;nan;100495.31;4982238;28;20022;-77
2023/08/18 07:01:50;;;;;;;2.35;2.25;;;;;;;22.73;nan;100483.91;4981393;28;20029;-77
2023/08/18 07:04:16;;;;;;;2.30;2.20;;;;;;;22.74;nan;100484.75;4977309;28;20034;-77
2023/08/18 07:06:44;;;;;;;2.33;2.22;;;;;;;22.74;nan;100484.75;4989792;28;20830;-78
2023/08/18 07:09:10;;;;;;;2.47;2.38;;;;;;;22.74;nan;100488.22;4983770;28;20038;-78
2023/08/18 07:11:36;;;;;;;2.42;2.33;;;;;;;22.74;nan;100487.38;4985296;28;20513;-78
2023/08/18 07:14:03;;;;;;;2.58;2.38;;;;;;;22.74;nan;100495.31;4992878;28;20034;-77
2023/08/18 07:16:28;;;;;;;2.40;2.30;;;;;;;22.74;nan;100487.38;4982134;28;20141;-78
2023/08/18 07:18:54;;;;;;;2.70;2.50;;;;;;;22.74;nan;100492.69;4982419;28;20648;-77
2023/08/18 07:21:19;;;;;;;2.40;2.30;;;;;;;22.75;nan;100502.31;4984513;28;20026;-77
2023/08/18 07:23:44;;;;;;;2.40;2.30;;;;;;;22.75;nan;100507.63;4984169;28;20025;-77
2023/08/18 07:26:10;;;;;;;2.60;2.35;;;;;;;22.74;nan;100503.28;4982640;28;20061;-77
2023/08/18 07:28:35;;;;;;;2.42;2.30;;;;;;;22.75;nan;100504.97;4983659;28;20580;-77
2023/08/18 07:31:04;;;;;;;2.47;2.38;;;;;;;22.75;nan;100504.97;4984356;28;20487;-78
2023/08/18 07:33:30;;;;;;;2.45;2.30;;;;;;;22.75;nan;100502.31;4993312;28;20041;-77
2023/08/18 07:35:56;;;;;;;3.00;2.80;;;;;;;22.75;nan;100499.69;4978971;28;20034;-77
2023/08/18 07:38:21;;;;;;;2.15;2.05;;;;;;;22.77;nan;100507.47;4982562;28;20632;-78
2023/08/18 07:40:46;;;;;;;2.40;2.30;;;;;;;22.76;nan;100509.28;4984535;28;20495;-78
2023/08/18 07:43:12;;;;;;;2.45;2.35;;;;;;;22.77;nan;100512.78;4992294;28;20180;-77
2023/08/18 07:45:37;;;;;;;2.40;2.30;;;;;;;22.77;nan;100507.47;4984777;28;20039;-77
2023/08/18 07:48:03;;;;;;;2.67;2.47;;;;;;;22.77;nan;100505.69;4983295;28;20128;-78
2023/08/18 07:50:28;;;;;;;2.20;2.10;;;;;;;22.77;nan;100505.69;4983472;28;20097;-77
2023/08/18 07:52:54;;;;;;;2.60;2.50;;;;;;;22.78;nan;100512.66;4983484;28;20048;-77
2023/08/18 07:55:21;;;;;;;2.40;2.30;;;;;;;22.78;nan;100512.66;4978185;28;20624;-77
2023/08/18 07:57:46;;;;;;;2.20;2.10;;;;;;;22.78;nan;100503.88;4983948;28;20667;-78
2023/08/18 08:00:16;;;;;;;2.63;2.42;;;;;;;22.78;nan;100509.16;4982168;28;20032;-76
2023/08/18 08:02:42;;;;;;;2.55;2.42;;;;;;;22.80;nan;100520.44;4981743;28;20030;-77
2023/08/18 08:05:08;;;;;;;2.33;2.13;;;;;;;22.79;nan;100516.13;4980150;28;20053;-78
2023/08/18 08:07:33;;;;;;;2.55;2.38;;;;;;;22.80;nan;100516.00;4984627;28;20214;-78
2023/08/18 08:10:03;;;;;;;2.40;2.20;;;;;;;22.80;nan;100515.16;4981957;28;20541;-77
2023/08/18 08:12:30;;;;;;;2.55;2.40;;;;;;;22.79;nan;100514.31;4985340;28;20229;-77
2023/08/18 08:14:56;;;;;;;2.25;2.15;;;;;;;22.79;nan;100514.31;4989506;28;20041;-78
2023/08/18 08:17:22;;;;;;;2.50;2.30;;;;;;;22.80;nan;100516.00;4982745;28;20026;-78
2023/08/18 08:19:47;;;;;;;2.20;2.10;;;;;;;22.81;nan;100527.44;4982669;28;20060;-77
2023/08/18 08:22:12;;;;;;;2.10;2.00;;;;;;;22.81;nan;100522.16;4984983;28;20126;-78
2023/08/18 08:24:37;;;;;;;2.42;2.22;;;;;;;22.80;nan;100509.84;4981849;28;20152;-77
2023/08/18 08:27:04;;;;;;;2.38;2.28;;;;;;;22.81;nan;100512.41;4985587;28;20437;-78
2023/08/18 08:29:29;;;;;;;2.50;2.30;;;;;;;22.81;nan;100508.91;4983285;28;20029;-78
2023/08/18 08:31:54;;;;;;;2.30;2.20;;;;;;;22.80;nan;100500.09;4982561;28;20049;-78
2023/08/18 08:34:20;;;;;;;2.50;2.30;;;;;;;22.80;nan;100505.41;4988236;28;20041;-78
2023/08/18 08:36:45;;;;;;;2.30;2.20;;;;;;;22.81;nan;100506.28;4987837;28;20070;-78
2023/08/18 08:39:11;;;;;;;2.63;2.42;;;;;;;22.81;nan;100508.91;4983616;28;20709;-78
2023/08/18 08:41:36;;;;;;;2.55;2.35;;;;;;;22.81;nan;100507.09;4983436;28;20101;-78
2023/08/18 08:44:01;;;;;;;2.15;2.05;;;;;;;22.81;nan;100507.09;4990122;28;20120;-78
2023/08/18 08:46:29;;;;;;;2.28;2.17;;;;;;;22.81;nan;100500.97;4987412;28;20034;-77
2023/08/18 08:49:15;;;;;;;2.45;2.28;;;;;;;22.81;nan;100507.09;4981528;28;20033;-78
2023/08/18 08:51:41;;;;;;;2.20;2.00;;;;;;;22.81;nan;100500.97;4981967;28;20594;-78
2023/08/18 08:54:08;;;;;;;2.60;2.40;;;;;;;22.82;nan;100507.94;4982915;28;20128;-77
2023/08/18 08:56:35;;;;;;;2.40;2.30;;;;;;;22.82;nan;100507.94;4981640;28;20033;-77
2023/08/18 08:59:00;;;;;;;2.42;2.33;;;;;;;22.82;nan;100505.31;4983065;28;20045;-77
2023/08/18 09:01:26;;;;;;;2.70;2.50;;;;;;;22.82;nan;100511.44;4981517;28;20038;-78
2023/08/18 09:03:51;;;;;;;2.22;2.13;;;;;;;22.82;nan;100508.78;4993659;28;20056;-78
2023/08/18 09:06:17;;;;;;;2.40;2.30;;;;;;;22.83;nan;100514.91;4986603;28;20735;-76
2023/08/18 09:08:42;;;;;;;2.42;2.33;;;;;;;22.83;nan;100512.28;4982105;28;20628;-77
2023/08/18 09:11:09;;;;;;;2.38;2.28;;;;;;;22.83;nan;100512.28;4982037;28;20091;-78
2023/08/18 09:13:35;;;;;;;2.78;2.58;;;;;;;22.82;nan;100508.78;4987156;28;20030;-77
2023/08/18 09:16:06;;;;;;;2.40;2.30;;;;;;;22.83;nan;100502.50;4979629;28;20057;-78
2023/08/18 09:21:59;;;;;;;2.67;2.47;;;;;;;22.82;nan;100507.94;4982445;28;20169;-78
2023/08/18 09:24:25;;;;;;;2.22;2.13;;;;;;;22.83;nan;100509.63;4990989;28;20078;-80
2023/08/18 09:26:51;;;;;;;2.20;2.08;;;;;;;22.83;nan;100499.88;4986150;28;20039;-78
2023/08/18 09:29:17;;;;;;;2.45;2.28;;;;;;;22.83;nan;100505.16;4982431;28;20067;-78
2023/08/18 09:31:45;;;;;;;2.53;2.38;;;;;;;22.83;nan;100499.88;4983424;28;20112;-78
2023/08/18 09:34:24;;;;;;;2.55;2.35;;;;;;;22.83;nan;100483.16;4996838;28;20091;-78
2023/08/18 09:36:56;;;;;;;2.00;1.90;;;;;;;22.83;nan;100488.44;4981363;28;20026;-78
2023/08/18 09:39:22;;;;;;;2.28;2.15;;;;;;;22.83;nan;100491.09;4981101;28;20034;-78
2023/08/18 09:41:52;;;;;;;2.28;2.17;;;;;;;22.83;nan;100491.94;4982700;28;20073;-78
2023/08/18 09:44:18;;;;;;;2.30;2.20;;;;;;;22.83;nan;100481.34;4992447;28;20398;-78
2023/08/18 09:46:51;;;;;;;2.30;2.20;;;;;;;22.83;nan;100480.50;4980060;28;20041;-78
2023/08/18 09:49:18;;;;;;;2.42;2.20;;;;;;;22.84;nan;100485.66;4981837;28;20116;-78
2023/08/18 09:51:46;;;;;;;2.70;2.50;;;;;;;22.83;nan;100481.34;4980350;28;20534;-78
2023/08/18 09:54:13;;;;;;;2.83;2.63;;;;;;;22.83;nan;100473.41;4973377;28;20121;-78
2023/08/18 09:56:39;;;;;;;2.03;1.92;;;;;;;22.84;nan;100476.88;4985327;28;21084;-78
2023/08/18 09:59:17;;;;;;;2.50;2.30;;;;;;;22.84;nan;100483.00;4965337;28;20141;-77
2023/08/18 10:01:44;;;;;;;2.63;2.43;;;;;;;22.84;nan;100480.38;4982131;28;20053;-77
2023/08/18 10:04:10;;;;;;;1.98;1.88;;;;;;;22.84;nan;100482.19;4994020;28;20068;-77
2023/08/18 10:06:39;;;;;;;2.67;2.47;;;;;;;22.84;nan;100475.06;4984988;28;20113;-78
2023/08/18 10:09:04;;;;;;;2.37;2.27;;;;;;;22.84;nan;100477.72;4982649;28;20064;-78
2023/08/18 10:11:30;;;;;;;2.15;2.05;;;;;;;22.84;nan;100475.06;4982676;28;20361;-77
2023/08/18 10:13:56;;;;;;;2.47;2.38;;;;;;;22.84;nan;100485.66;4980054;28;20061;-77
2023/08/18 10:16:22;;;;;;;2.20;2.10;;;;;;;22.85;nan;100482.03;4987061;28;20116;-77
2023/08/18 10:18:56;;;;;;;2.38;2.20;;;;;;;22.85;nan;100476.75;4980791;28;20486;-78
2023/08/18 10:21:23;;;;;;;2.70;2.50;;;;;;;22.84;nan;100475.06;4981246;28;20030;-78
2023/08/18 10:23:48;;;;;;;2.60;2.40;;;;;;;22.85;nan;100465.31;4992258;28;20037;-78
2023/08/18 10:26:14;;;;;;;2.38;2.17;;;;;;;22.85;nan;100463.50;4963960;28;20078;-77
2023/08/18 10:28:40;;;;;;;2.33;2.22;;;;;;;22.85;nan;100470.63;4982989;28;20030;-77
2023/08/18 10:31:10;;;;;;;2.25;2.15;;;;;;;22.86;nan;100461.69;4983200;28;20034;-78
2023/08/18 10:33:44;;;;;;;1.95;1.85;;;;;;;22.85;nan;100452.91;4983051;28;20034;-77
2023/08/18 10:36:14;;;;;;;2.13;2.03;;;;;;;22.85;nan;100455.56;4981326;28;20034;-77
2023/08/18 10:38:40;;;;;;;2.17;2.08;;;;;;;22.85;nan;100444.97;4981100;28;20482;-77
2023/08/18 10:41:05;;;;;;;2.35;2.20;;;;;;;22.86;nan;100443.16;4984204;28;20092;-77
2023/08/18 10:43:47;;;;;;;2.65;2.38;;;;;;;22.85;nan;100444.97;4992402;28;20026;-78
2023/08/18 10:46:13;;;;;;;2.10;2.00;;;;;;;22.86;nan;100438.75;4990059;28;20123;-76
2023/08/18 10:48:38;;;;;;;2.15;2.05;;;;;;;22.86;nan;100435.22;4986406;28;20136;-76
2023/08/18 10:51:03;;;;;;;2.25;2.15;;;;;;;22.85;nan;100437.03;4985618;28;20058;-77
2023/08/18 10:53:37;;;;;;;1.92;1.83;;;;;;;22.86;nan;100440.53;4993140;28;20026;-77
2023/08/18 10:56:05;;;;;;;2.28;2.17;;;;;;;22.86;nan;100438.75;4982303;28;20762;-77
2023/08/18 10:58:32;;;;;;;2.07;1.97;;;;;;;22.86;nan;100433.44;4985468;28;20051;-78
2023/08/18 11:00:57;;;;;;;2.40;2.30;;;;;;;22.86;nan;100433.44;4985735;28;20558;-78
2023/08/18 11:03:25;;;;;;;2.45;2.25;;;;;;;22.86;nan;100433.44;4986035;28;20030;-77
2023/08/18 11:05:51;;;;;;;2.17;2.03;;;;;;;22.87;nan;100436.94;4995563;28;20030;-77
2023/08/18 11:08:17;;;;;;;2.40;2.20;;;;;;;22.87;nan;100432.50;4985368;28;20041;-78
2023/08/18 11:10:43;;;;;;;2.38;2.28;;;;;;;22.87;nan;100426.34;4984820;28;20033;-78
2023/08/18 11:13:24;;;;;;;2.47;2.33;;;;;;;22.87;nan;100424.56;4988047;28;20775;-78
2023/08/18 11:15:51;;;;;;;2.45;2.25;;;;;;;22.87;nan;100421.91;4992358;28;20026;-78
2023/08/18 11:18:16;;;;;;;2.20;2.10;;;;;;;22.87;nan;100416.63;4984371;28;20045;-77
2023/08/18 11:20:42;;;;;;;2.72;2.08;;;;;;;22.87;nan;100416.63;4985932;28;20084;-78
2023/08/18 11:23:08;;;;;;;2.25;2.13;;;;;;;22.87;nan;100415.75;4989553;28;20459;-77
2023/08/18 11:25:34;;;;;;;2.35;2.25;;;;;;;22.87;nan;100406.03;4988377;28;20108;-77
2023/08/18 11:27:59;;;;;;;2.25;2.15;;;;;;;22.87;nan;100406.03;4984996;28;20276;-78
2023/08/18 11:30:25;;;;;;;2.10;2.00;;;;;;;22.88;nan;100401.56;4982838;28;20034;-78
2023/08/18 11:32:53;;;;;;;2.40;2.30;;;;;;;22.88;nan;100402.41;4986111;28;20122;-78
2023/08/18 11:35:18;;;;;;;2.15;2.05;;;;;;;22.88;nan;100401.56;4980686;28;20880;-77
2023/08/18 11:37:46;;;;;;;2.28;2.17;;;;;;;22.89;nan;100397.94;4984987;28;20033;-78
2023/08/18 11:40:17;;;;;;;2.30;2.20;;;;;;;22.88;nan;100396.28;4984137;28;20108;-77
2023/08/18 11:42:44;;;;;;;2.05;1.90;;;;;;;22.88;nan;100397.13;4974314;28;20486;-78